createdAt,value
2022-10-31T00:00:58.119Z,5.72
2022-10-31T00:02:02.987Z,5.97
2022-10-31T00:03:05.526Z,6.25
2022-10-31T00:04:15.859Z,5.88
2022-10-31T00:05:18.414Z,6.28
2022-10-31T00:06:28.839Z,7.03
2022-10-31T00:07:31.376Z,6.28
2022-10-31T00:08:34.938Z,5.53
2022-10-31T00:09:43.896Z,7.63
2022-10-31T00:10:48.272Z,6.65
2022-10-31T00:11:51.720Z,7.18
2022-10-31T00:12:54.195Z,6.18
2022-10-31T00:13:57.675Z,7.75
2022-10-31T00:15:06.865Z,5.50
2022-10-31T00:16:16.186Z,4.65
2022-10-31T00:17:26.867Z,5.75
2022-10-31T00:18:50.823Z,7.22
2022-10-31T00:19:54.217Z,7.75
2022-10-31T00:21:00.561Z,7.20
2022-10-31T00:22:03.957Z,6.65
2022-10-31T00:23:13.855Z,7.82
2022-10-31T00:24:17.255Z,5.82
2022-10-31T00:25:21.536Z,7.13
2022-10-31T00:26:24.944Z,5.55
2022-10-31T00:27:33.915Z,5.60
2022-10-31T00:28:37.386Z,7.15
2022-10-31T00:29:40.815Z,7.70
2022-10-31T00:30:43.275Z,5.50
2022-10-31T00:31:46.753Z,6.32
2022-10-31T00:32:57.136Z,6.50
2022-10-31T00:34:08.355Z,5.55
2022-10-31T00:35:10.834Z,6.03
2022-10-31T00:36:15.326Z,4.78
2022-10-31T00:37:17.805Z,6.38
2022-10-31T00:38:21.205Z,5.75
2022-10-31T00:39:29.886Z,8.13
2022-10-31T00:40:39.904Z,7.57
2022-10-31T00:41:42.870Z,5.18
2022-10-31T00:42:46.403Z,5.38
2022-10-31T00:43:49.024Z,7.53
2022-10-31T00:44:52.441Z,6.20
2022-10-31T00:46:01.874Z,4.50
2022-10-31T00:47:05.275Z,4.25
2022-10-31T00:48:09.077Z,4.80
2022-10-31T00:49:19.914Z,6.38
2022-10-31T00:50:22.393Z,5.97
2022-10-31T00:51:25.807Z,4.50
2022-10-31T00:52:28.303Z,6.22
2022-10-31T00:53:31.717Z,6.32
2022-10-31T00:54:40.863Z,4.93
2022-10-31T00:55:44.303Z,6.10
2022-10-31T00:56:46.825Z,3.67
2022-10-31T00:57:50.285Z,4.88
2022-10-31T00:58:52.764Z,6.05
2022-10-31T01:00:02.864Z,6.05
2022-10-31T01:01:12.008Z,4.22
2022-10-31T01:02:15.624Z,5.20
2022-10-31T01:03:19.488Z,6.18
2022-10-31T01:04:23.015Z,7.32
2022-10-31T01:05:31.904Z,5.90
2022-10-31T01:06:35.354Z,6.68
2022-10-31T01:07:38.164Z,4.10
2022-10-31T01:08:41.775Z,4.65
2022-10-31T01:09:44.445Z,5.85
2022-10-31T01:10:54.867Z,6.90
2022-10-31T01:11:57.358Z,6.00
2022-10-31T01:13:01.132Z,5.53
2022-10-31T01:14:03.856Z,6.03
2022-10-31T01:15:07.848Z,6.20
2022-10-31T01:16:18.903Z,6.32
2022-10-31T01:17:22.323Z,5.65
2022-10-31T01:18:26.228Z,4.93
2022-10-31T01:19:49.864Z,4.55
2022-10-31T01:20:59.164Z,7.13
2022-10-31T01:22:08.862Z,5.97
2022-10-31T01:23:11.376Z,4.55
2022-10-31T01:24:14.785Z,5.03
2022-10-31T01:25:17.313Z,6.38
2022-10-31T01:26:21.936Z,5.68
2022-10-31T01:27:37.919Z,7.53
2022-10-31T01:28:42.195Z,4.85
2022-10-31T01:29:44.664Z,5.25
2022-10-31T01:30:48.364Z,6.75
2022-10-31T01:31:50.874Z,3.75
2022-10-31T01:33:01.153Z,6.55
2022-10-31T01:34:05.145Z,4.60
2022-10-31T01:35:08.766Z,5.35
2022-10-31T01:36:15.596Z,4.90
2022-10-31T01:37:19.062Z,3.65
2022-10-31T01:38:27.894Z,6.43
2022-10-31T01:39:37.884Z,5.03
2022-10-31T01:40:40.356Z,5.45
2022-10-31T01:41:44.847Z,6.03
2022-10-31T01:42:53.884Z,4.70
2022-10-31T01:43:58.465Z,5.85
2022-10-31T01:45:08.974Z,4.57
2022-10-31T01:46:12.393Z,6.03
2022-10-31T01:47:17.454Z,4.93
2022-10-31T01:48:24.695Z,7.50
2022-10-31T01:49:39.865Z,6.15
2022-10-31T01:50:43.886Z,5.43
2022-10-31T01:51:48.683Z,5.32
2022-10-31T01:52:52.774Z,3.50
2022-10-31T01:53:57.324Z,5.10
2022-10-31T01:55:09.024Z,6.43
2022-10-31T01:56:12.536Z,4.53
2022-10-31T01:57:16.566Z,5.70
2022-10-31T01:58:22.834Z,5.45
2022-10-31T01:59:28.535Z,6.07
2022-10-31T02:00:38.856Z,4.03
2022-10-31T02:01:41.502Z,4.25
2022-10-31T02:02:45.642Z,3.70
2022-10-31T02:03:48.787Z,5.80
2022-10-31T02:04:53.965Z,4.75
2022-10-31T02:06:03.887Z,6.43
2022-10-31T02:07:10.523Z,5.07
2022-10-31T02:08:21.876Z,3.97
2022-10-31T02:09:25.825Z,4.03
2022-10-31T02:10:28.575Z,4.25
2022-10-31T02:11:32.374Z,6.65
2022-10-31T02:12:37.260Z,4.57
2022-10-31T02:13:53.873Z,5.20
2022-10-31T02:15:02.954Z,4.53
2022-10-31T02:16:06.673Z,6.70
2022-10-31T02:17:09.147Z,3.35
2022-10-31T02:18:18.894Z,3.05
2022-10-31T02:19:45.878Z,4.45
2022-10-31T02:21:01.887Z,5.20
2022-10-31T02:22:07.622Z,2.72
2022-10-31T02:23:23.280Z,4.50
2022-10-31T02:24:44.592Z,5.13
2022-10-31T02:26:06.949Z,5.13
2022-10-31T02:27:19.334Z,2.90
2022-10-31T02:28:29.324Z,5.57
2022-10-31T02:29:51.465Z,5.22
2022-10-31T02:31:13.900Z,2.75
2022-10-31T02:32:18.786Z,3.50
2022-10-31T02:33:24.874Z,5.30
2022-10-31T02:34:31.835Z,4.10
2022-10-31T02:35:40.074Z,4.75
2022-10-31T02:36:51.903Z,3.25
2022-10-31T02:38:05.885Z,4.93
2022-10-31T02:39:14.715Z,4.75
2022-10-31T02:40:19.623Z,4.32
2022-10-31T02:41:28.805Z,4.20
2022-10-31T02:42:40.854Z,3.28
2022-10-31T02:43:54.915Z,2.53
2022-10-31T02:45:03.344Z,1.95
2022-10-31T02:46:12.309Z,3.58
2022-10-31T02:47:17.444Z,3.00
2022-10-31T02:48:21.326Z,3.70
2022-10-31T02:49:35.895Z,5.57
2022-10-31T02:50:40.961Z,2.95
2022-10-31T02:51:44.505Z,3.20
2022-10-31T02:52:47.006Z,3.38
2022-10-31T02:53:50.365Z,4.03
2022-10-31T02:54:59.923Z,3.25
2022-10-31T02:56:04.803Z,2.97
2022-10-31T02:57:09.103Z,4.28
2022-10-31T02:58:14.831Z,2.90
2022-10-31T02:59:17.721Z,3.58
2022-10-31T03:00:27.924Z,3.00
2022-10-31T03:01:38.783Z,3.08
2022-10-31T03:02:57.485Z,2.42
2022-10-31T03:04:13.017Z,3.00
2022-10-31T03:05:43.898Z,4.82
2022-10-31T03:06:49.485Z,4.55
2022-10-31T03:07:56.825Z,3.72
2022-10-31T03:09:03.065Z,3.08
2022-10-31T03:10:15.918Z,2.88
2022-10-31T03:11:19.403Z,2.00
2022-10-31T03:12:27.457Z,2.50
2022-10-31T03:13:35.910Z,3.58
2022-10-31T03:14:43.482Z,3.90
2022-10-31T03:15:52.905Z,3.67
2022-10-31T03:17:00.218Z,2.55
2022-10-31T03:18:05.725Z,3.28
2022-10-31T03:19:32.874Z,4.10
2022-10-31T03:20:38.548Z,4.25
2022-10-31T03:21:49.926Z,3.47
2022-10-31T03:22:53.184Z,3.60
2022-10-31T03:23:57.016Z,3.28
2022-10-31T03:24:59.883Z,2.92
2022-10-31T03:26:03.863Z,3.97
2022-10-31T03:27:13.914Z,2.83
2022-10-31T03:29:24.334Z,3.92
2022-10-31T03:30:27.795Z,3.38
2022-10-31T03:31:31.957Z,2.88
2022-10-31T03:32:44.894Z,3.28
2022-10-31T03:33:48.074Z,2.42
2022-10-31T03:34:52.583Z,2.42
2022-10-31T03:35:57.277Z,1.88
2022-10-31T03:37:09.946Z,2.72
2022-10-31T03:38:12.915Z,2.90
2022-10-31T03:39:18.016Z,3.33
2022-10-31T03:40:21.275Z,1.73
2022-10-31T03:41:26.598Z,2.60
2022-10-31T03:42:37.904Z,1.73
2022-10-31T03:43:50.926Z,2.05
2022-10-31T03:44:55.497Z,2.00
2022-10-31T03:45:59.362Z,2.50
2022-10-31T03:47:02.026Z,4.30
2022-10-31T03:48:06.995Z,1.83
2022-10-31T03:49:15.935Z,3.30
2022-10-31T03:50:25.920Z,3.67
2022-10-31T03:51:31.879Z,2.50
2022-10-31T03:52:38.505Z,3.70
2022-10-31T03:53:49.924Z,2.92
2022-10-31T03:54:55.985Z,2.95
2022-10-31T03:56:01.560Z,3.42
2022-10-31T03:57:09.785Z,3.60
2022-10-31T03:58:14.194Z,2.75
2022-10-31T03:59:27.268Z,2.55
2022-10-31T04:00:29.795Z,2.75
2022-10-31T04:01:35.118Z,3.10
2022-10-31T04:02:40.528Z,2.60
2022-10-31T04:03:45.586Z,2.22
2022-10-31T04:04:54.915Z,2.97
2022-10-31T04:06:00.614Z,2.38
2022-10-31T04:07:04.435Z,2.15
2022-10-31T04:08:11.080Z,3.28
2022-10-31T04:09:14.085Z,2.55
2022-10-31T04:10:30.135Z,3.85
2022-10-31T04:11:37.091Z,4.05
2022-10-31T04:12:41.379Z,4.53
2022-10-31T04:13:46.218Z,4.25
2022-10-31T04:14:57.945Z,2.70
2022-10-31T04:16:00.654Z,2.75
2022-10-31T04:17:05.174Z,4.55
2022-10-31T04:18:08.024Z,3.40
2022-10-31T04:19:32.897Z,3.83
2022-10-31T04:20:42.965Z,1.30
2022-10-31T04:21:46.394Z,3.17
2022-10-31T04:22:48.874Z,3.03
2022-10-31T04:23:52.315Z,3.80
2022-10-31T04:24:54.805Z,2.17
2022-10-31T04:26:04.956Z,2.58
2022-10-31T04:27:14.176Z,1.77
2022-10-31T04:29:20.177Z,2.13
2022-10-31T04:30:23.764Z,2.20
2022-10-31T04:31:32.957Z,3.00
2022-10-31T04:32:36.335Z,2.97
2022-10-31T04:33:38.837Z,2.17
2022-10-31T04:34:43.583Z,2.28
2022-10-31T04:35:46.245Z,3.63
2022-10-31T04:36:55.956Z,2.50
2022-10-31T04:37:58.465Z,2.30
2022-10-31T04:39:01.896Z,2.58
2022-10-31T04:40:05.095Z,2.70
2022-10-31T04:41:08.571Z,2.72
2022-10-31T04:42:17.970Z,3.75
2022-10-31T04:43:21.481Z,2.25
2022-10-31T04:44:23.965Z,3.65
2022-10-31T04:45:27.386Z,2.85
2022-10-31T04:46:29.845Z,1.70
2022-10-31T04:47:46.945Z,2.70
2022-10-31T04:48:49.446Z,2.63
2022-10-31T04:49:54.148Z,2.42
2022-10-31T04:51:06.914Z,2.47
2022-10-31T04:52:10.281Z,2.47
2022-10-31T04:53:12.756Z,3.95
2022-10-31T04:54:16.155Z,1.90
2022-10-31T04:55:18.736Z,2.30
2022-10-31T04:56:28.934Z,2.00
2022-10-31T04:57:31.394Z,1.45
2022-10-31T04:58:34.856Z,2.55
2022-10-31T04:59:37.404Z,2.88
2022-10-31T05:00:40.944Z,1.58
2022-10-31T05:01:50.150Z,3.20
2022-10-31T05:02:54.687Z,2.90
2022-10-31T05:03:57.230Z,2.65
2022-10-31T05:05:04.545Z,2.60
2022-10-31T05:06:07.264Z,2.83
2022-10-31T05:07:16.935Z,2.70
2022-10-31T05:08:19.380Z,1.33
2022-10-31T05:09:29.397Z,2.80
2022-10-31T05:10:32.081Z,3.42
2022-10-31T05:11:35.505Z,3.15
2022-10-31T05:12:37.994Z,3.67
2022-10-31T05:13:41.498Z,1.63
2022-10-31T05:14:50.935Z,2.72
2022-10-31T05:16:00.947Z,1.33
2022-10-31T05:17:03.446Z,3.58
2022-10-31T05:18:06.890Z,2.13
2022-10-31T05:19:16.187Z,3.10
2022-10-31T05:20:34.987Z,2.70
2022-10-31T05:21:37.464Z,2.20
2022-10-31T05:22:44.595Z,2.40
2022-10-31T05:23:48.517Z,2.22
2022-10-31T05:24:52.215Z,3.22
2022-10-31T05:26:00.969Z,3.47
2022-10-31T05:27:04.408Z,1.65
2022-10-31T05:28:06.888Z,2.58
2022-10-31T05:29:10.256Z,2.03
2022-10-31T05:30:13.916Z,3.17
2022-10-31T05:31:23.953Z,2.35
2022-10-31T05:32:32.947Z,1.85
2022-10-31T05:33:36.366Z,3.15
2022-10-31T05:34:38.866Z,2.45
2022-10-31T05:35:49.947Z,2.67
2022-10-31T05:36:58.934Z,3.50
2022-10-31T05:38:02.635Z,2.83
2022-10-31T05:39:05.375Z,2.72
2022-10-31T05:40:10.649Z,3.00
2022-10-31T05:41:14.075Z,2.30
2022-10-31T05:42:22.984Z,3.55
2022-10-31T05:43:26.535Z,3.55
2022-10-31T05:44:29.011Z,2.72
2022-10-31T05:45:32.467Z,4.03
2022-10-31T05:47:44.941Z,3.78
2022-10-31T05:48:47.550Z,4.43
2022-10-31T05:49:50.973Z,3.97
2022-10-31T05:50:54.825Z,2.47
2022-10-31T05:52:04.984Z,3.00
2022-10-31T05:53:07.467Z,3.58
2022-10-31T05:54:15.572Z,2.60
2022-10-31T05:55:18.434Z,2.92
2022-10-31T05:56:21.968Z,4.50
2022-10-31T05:57:30.950Z,2.88
2022-10-31T05:58:40.964Z,2.65
2022-10-31T05:59:43.443Z,2.70
2022-10-31T06:00:46.864Z,2.15
2022-10-31T06:01:49.427Z,3.97
2022-10-31T06:03:00.094Z,4.50
2022-10-31T06:04:09.921Z,2.33
2022-10-31T06:05:12.501Z,3.00
2022-10-31T06:06:17.313Z,2.53
2022-10-31T06:07:19.797Z,2.67
2022-10-31T06:08:23.216Z,2.72
2022-10-31T06:09:31.963Z,2.72
2022-10-31T06:10:35.406Z,2.70
2022-10-31T06:11:37.878Z,3.83
2022-10-31T06:12:41.690Z,3.60
2022-10-31T06:13:44.149Z,2.30
2022-10-31T06:14:53.994Z,4.00
2022-10-31T06:15:56.477Z,2.30
2022-10-31T06:16:59.905Z,3.00
2022-10-31T06:18:03.683Z,2.88
2022-10-31T06:19:14.085Z,2.45
2022-10-31T06:20:30.016Z,3.92
2022-10-31T06:21:34.715Z,1.95
2022-10-31T06:22:37.224Z,2.50
2022-10-31T06:23:40.648Z,2.65
2022-10-31T06:24:43.124Z,2.38
2022-10-31T06:25:56.958Z,4.30
2022-10-31T06:26:59.427Z,3.33
2022-10-31T06:28:02.916Z,3.15
2022-10-31T06:29:05.507Z,3.25
2022-10-31T06:30:09.275Z,3.33
2022-10-31T06:31:17.964Z,1.95
2022-10-31T06:32:21.644Z,2.47
2022-10-31T06:33:30.965Z,2.45
2022-10-31T06:34:34.376Z,3.22
2022-10-31T06:35:37.766Z,2.03
2022-10-31T06:36:47.967Z,2.67
2022-10-31T06:37:54.577Z,3.13
2022-10-31T06:38:57.021Z,2.00
2022-10-31T06:40:00.484Z,4.43
2022-10-31T06:41:10.977Z,2.75
2022-10-31T06:42:14.405Z,3.85
2022-10-31T06:43:16.915Z,3.80
2022-10-31T06:44:20.315Z,2.40
2022-10-31T06:45:22.795Z,3.25
2022-10-31T06:46:32.968Z,1.52
2022-10-31T06:47:50.758Z,3.53
2022-10-31T06:49:00.096Z,2.17
2022-10-31T06:50:02.775Z,3.90
2022-10-31T06:51:12.984Z,3.40
2022-10-31T06:52:26.005Z,2.28
2022-10-31T06:53:30.684Z,4.05
2022-10-31T06:54:33.234Z,2.85
2022-10-31T06:55:36.590Z,3.65
2022-10-31T06:56:45.975Z,1.85
2022-10-31T06:58:02.016Z,2.08
2022-10-31T06:59:06.773Z,2.63
2022-10-31T07:00:09.976Z,3.55
2022-10-31T07:01:13.553Z,3.58
2022-10-31T07:02:23.000Z,3.20
2022-10-31T07:03:26.464Z,2.72
2022-10-31T07:04:34.953Z,3.03
2022-10-31T07:05:38.416Z,2.13
2022-10-31T07:06:40.926Z,3.65
2022-10-31T07:07:45.634Z,3.53
2022-10-31T07:08:54.945Z,4.00
2022-10-31T07:09:58.353Z,3.83
2022-10-31T07:11:00.867Z,2.47
2022-10-31T07:12:04.415Z,4.10
2022-10-31T07:13:07.550Z,2.45
2022-10-31T07:14:17.967Z,2.60
2022-10-31T07:15:20.545Z,3.28
2022-10-31T07:16:24.005Z,3.42
2022-10-31T07:17:29.813Z,3.63
2022-10-31T07:18:33.674Z,3.22
2022-10-31T07:19:42.977Z,3.35
2022-10-31T07:20:53.109Z,3.88
2022-10-31T07:22:08.953Z,3.33
2022-10-31T07:23:13.725Z,2.42
2022-10-31T07:24:16.185Z,1.98
2022-10-31T07:25:19.628Z,3.45
2022-10-31T07:26:29.985Z,3.03
2022-10-31T07:27:44.957Z,4.00
2022-10-31T07:28:49.035Z,3.25
2022-10-31T07:29:51.528Z,2.28
2022-10-31T07:30:55.464Z,2.20
2022-10-31T07:31:58.886Z,3.33
2022-10-31T07:33:07.965Z,2.38
2022-10-31T07:34:17.964Z,2.83
2022-10-31T07:35:21.385Z,3.05
2022-10-31T07:36:24.774Z,2.53
2022-10-31T07:37:29.485Z,3.58
2022-10-31T07:38:34.221Z,4.30
2022-10-31T07:39:43.006Z,1.50
2022-10-31T07:40:46.466Z,3.78
2022-10-31T07:41:48.935Z,4.07
2022-10-31T07:42:54.264Z,4.22
2022-10-31T07:43:57.697Z,3.03
2022-10-31T07:45:06.975Z,2.33
2022-10-31T07:46:10.404Z,2.10
2022-10-31T07:47:13.814Z,2.20
2022-10-31T07:48:16.295Z,5.33
2022-10-31T07:49:25.976Z,4.57
2022-10-31T07:50:29.368Z,3.50
2022-10-31T07:51:32.915Z,3.50
2022-10-31T07:52:35.404Z,4.50
2022-10-31T07:53:40.099Z,3.35
2022-10-31T07:54:48.966Z,2.92
2022-10-31T07:55:52.385Z,2.97
2022-10-31T07:57:00.978Z,3.17
2022-10-31T07:58:05.367Z,5.77
2022-10-31T07:59:13.989Z,3.37
2022-10-31T08:00:17.594Z,3.10
2022-10-31T08:01:28.058Z,3.25
2022-10-31T08:02:30.539Z,3.27
2022-10-31T08:03:33.974Z,2.65
2022-10-31T08:04:36.477Z,5.13
2022-10-31T08:05:41.514Z,4.28
2022-10-31T08:06:50.969Z,4.57
2022-10-31T08:07:54.410Z,1.93
2022-10-31T08:08:58.226Z,4.07
2022-10-31T08:10:01.762Z,4.47
2022-10-31T08:11:12.003Z,3.23
2022-10-31T08:12:15.465Z,2.93
2022-10-31T08:13:18.940Z,2.70
2022-10-31T08:14:28.974Z,3.00
2022-10-31T08:15:32.747Z,4.67
2022-10-31T08:16:35.219Z,3.53
2022-10-31T08:17:38.634Z,3.37
2022-10-31T08:18:41.264Z,3.43
2022-10-31T08:19:50.985Z,2.33
2022-10-31T08:21:01.114Z,3.43
2022-10-31T08:22:03.584Z,2.93
2022-10-31T08:23:07.795Z,2.23
2022-10-31T08:24:18.975Z,3.63
2022-10-31T08:25:29.898Z,3.53
2022-10-31T08:26:41.970Z,2.40
2022-10-31T08:27:44.457Z,2.77
2022-10-31T08:28:47.864Z,3.03
2022-10-31T08:29:50.344Z,3.80
2022-10-31T08:30:59.998Z,2.97
2022-10-31T08:32:08.985Z,2.57
2022-10-31T08:33:13.164Z,2.87
2022-10-31T08:34:15.698Z,3.53
2022-10-31T08:35:26.037Z,2.60
2022-10-31T08:36:29.898Z,2.77
2022-10-31T08:37:32.361Z,2.67
2022-10-31T08:38:35.884Z,2.73
2022-10-31T08:39:39.663Z,2.73
2022-10-31T08:40:50.024Z,2.47
2022-10-31T08:41:53.605Z,4.93
2022-10-31T08:42:59.604Z,3.43
2022-10-31T08:44:03.024Z,1.83
2022-10-31T08:45:05.796Z,3.03
2022-10-31T08:46:16.016Z,4.60
2022-10-31T08:47:18.502Z,3.23
2022-10-31T08:48:21.915Z,4.13
2022-10-31T08:49:24.455Z,2.93
2022-10-31T08:50:28.456Z,3.53
2022-10-31T08:51:37.978Z,3.97
2022-10-31T08:53:03.470Z,4.50
2022-10-31T08:54:04.744Z,2.93
2022-10-31T08:55:09.122Z,2.60
2022-10-31T08:56:12.607Z,3.67
2022-10-31T08:57:21.996Z,3.10
2022-10-31T08:58:25.974Z,5.43
2022-10-31T08:59:36.024Z,4.80
2022-10-31T09:00:39.850Z,4.70
2022-10-31T09:01:43.492Z,4.63
2022-10-31T09:02:46.217Z,5.10
2022-10-31T09:03:50.056Z,3.13
2022-10-31T09:04:59.036Z,2.83
2022-10-31T09:06:03.937Z,2.97
2022-10-31T09:07:22.060Z,3.93
2022-10-31T09:08:25.798Z,4.00
2022-10-31T09:09:28.516Z,3.93
2022-10-31T09:10:41.137Z,4.73
2022-10-31T09:11:43.647Z,4.53
2022-10-31T09:12:47.105Z,3.37
2022-10-31T09:13:50.529Z,4.83
2022-10-31T09:14:53.094Z,3.63
2022-10-31T09:16:03.036Z,3.60
2022-10-31T09:17:06.466Z,3.73
2022-10-31T09:18:09.421Z,3.63
2022-10-31T09:19:12.826Z,4.80
2022-10-31T09:20:22.868Z,4.27
2022-10-31T09:21:33.055Z,4.00
2022-10-31T09:22:36.596Z,5.07
2022-10-31T09:23:39.169Z,3.43
2022-10-31T09:24:42.578Z,4.60
2022-10-31T09:25:50.460Z,3.13
2022-10-31T09:27:01.030Z,2.50
2022-10-31T09:28:04.506Z,2.50
2022-10-31T09:29:10.477Z,4.17
2022-10-31T09:30:13.247Z,2.67
2022-10-31T09:31:16.743Z,4.43
2022-10-31T09:32:26.085Z,5.43
2022-10-31T09:33:29.525Z,3.43
2022-10-31T09:34:32.007Z,3.23
2022-10-31T09:35:35.885Z,3.57
2022-10-31T09:36:46.015Z,4.17
2022-10-31T09:37:49.425Z,3.93
2022-10-31T09:38:53.457Z,4.13
2022-10-31T09:39:56.867Z,4.47
2022-10-31T09:41:07.455Z,2.37
2022-10-31T09:42:27.014Z,3.63
2022-10-31T09:43:34.034Z,4.73
2022-10-31T09:44:51.026Z,3.77
2022-10-31T09:46:00.695Z,2.67
2022-10-31T09:47:07.015Z,3.10
2022-10-31T09:48:27.013Z,4.30
2022-10-31T09:49:38.614Z,4.90
2022-10-31T09:50:44.206Z,4.27
2022-10-31T09:51:52.928Z,4.00
2022-10-31T09:53:00.548Z,5.13
2022-10-31T09:54:14.014Z,3.50
2022-10-31T09:55:17.786Z,4.10
2022-10-31T09:56:23.675Z,4.47
2022-10-31T09:57:27.467Z,3.53
2022-10-31T09:58:35.440Z,4.37
2022-10-31T09:59:49.030Z,3.30
2022-10-31T10:00:51.587Z,2.93
2022-10-31T10:01:57.865Z,3.07
2022-10-31T10:03:04.879Z,4.03
2022-10-31T10:04:24.004Z,2.67
2022-10-31T10:05:37.037Z,3.53
2022-10-31T10:06:42.561Z,2.87
2022-10-31T10:07:52.395Z,4.10
2022-10-31T10:08:54.930Z,3.70
2022-10-31T10:09:58.324Z,5.13
2022-10-31T10:11:18.007Z,3.27
2022-10-31T10:12:38.036Z,4.57
2022-10-31T10:13:50.044Z,3.30
2022-10-31T10:14:59.739Z,2.73
2022-10-31T10:16:08.754Z,4.43
2022-10-31T10:17:24.025Z,4.40
2022-10-31T10:18:31.125Z,3.77
2022-10-31T10:19:51.155Z,3.13
2022-10-31T10:21:07.204Z,4.27
2022-10-31T10:22:20.033Z,3.53
2022-10-31T10:23:31.422Z,5.70
2022-10-31T10:24:41.140Z,4.17
2022-10-31T10:25:47.543Z,2.90
2022-10-31T10:26:54.545Z,3.37
2022-10-31T10:28:18.018Z,2.63
2022-10-31T10:29:28.536Z,2.63
2022-10-31T10:30:35.489Z,4.83
2022-10-31T10:31:42.365Z,4.00
2022-10-31T10:32:50.983Z,5.60
2022-10-31T10:34:08.016Z,4.03
2022-10-31T10:35:25.028Z,3.70
2022-10-31T10:36:30.879Z,4.03
2022-10-31T10:37:34.747Z,4.33
2022-10-31T10:38:40.636Z,3.83
2022-10-31T10:39:51.034Z,3.73
2022-10-31T10:40:55.496Z,3.10
2022-10-31T10:42:26.375Z,3.30
2022-10-31T10:43:40.201Z,3.83
2022-10-31T10:45:04.344Z,4.90
2022-10-31T10:46:38.128Z,3.63
2022-10-31T10:47:43.176Z,3.33
2022-10-31T10:48:54.084Z,3.07
2022-10-31T10:49:57.579Z,3.10
2022-10-31T10:51:00.195Z,4.53
2022-10-31T10:53:57.026Z,3.17
2022-10-31T10:55:05.847Z,2.27
2022-10-31T10:56:21.036Z,4.37
2022-10-31T10:57:35.584Z,2.97
2022-10-31T10:58:40.866Z,4.37
2022-10-31T10:59:43.419Z,5.67
2022-10-31T11:00:55.178Z,3.70
2022-10-31T11:01:58.730Z,4.33
2022-10-31T11:03:09.043Z,3.50
2022-10-31T11:04:23.523Z,4.43
2022-10-31T11:05:28.763Z,3.57
2022-10-31T11:06:31.286Z,4.67
2022-10-31T11:07:40.993Z,3.83
2022-10-31T11:08:51.160Z,3.37
2022-10-31T11:10:05.859Z,3.23
2022-10-31T11:11:17.088Z,3.23
2022-10-31T11:12:22.677Z,3.13
2022-10-31T11:13:27.528Z,2.83
2022-10-31T11:14:31.312Z,4.50
2022-10-31T11:15:36.582Z,2.90
2022-10-31T11:16:48.055Z,4.03
2022-10-31T11:17:51.485Z,3.37
2022-10-31T11:18:55.334Z,3.13
2022-10-31T11:20:32.786Z,3.67
2022-10-31T11:21:35.825Z,2.57
2022-10-31T11:22:46.052Z,3.73
2022-10-31T11:23:49.539Z,3.77
2022-10-31T11:24:52.148Z,5.23
2022-10-31T11:25:57.467Z,3.63
2022-10-31T11:27:19.054Z,3.77
2022-10-31T11:28:29.056Z,3.00
2022-10-31T11:29:33.835Z,3.87
2022-10-31T11:30:38.357Z,4.30
2022-10-31T11:31:42.324Z,2.10
2022-10-31T11:32:48.968Z,3.93
2022-10-31T11:34:08.046Z,3.63
2022-10-31T11:35:19.034Z,1.87
2022-10-31T11:36:24.398Z,3.70
2022-10-31T11:37:28.244Z,3.63
2022-10-31T11:38:41.064Z,4.37
2022-10-31T11:39:45.668Z,4.77
2022-10-31T11:41:02.088Z,5.40
2022-10-31T11:42:08.917Z,2.57
2022-10-31T11:43:17.568Z,3.20
2022-10-31T11:44:22.428Z,2.23
2022-10-31T11:45:32.799Z,4.10
2022-10-31T11:46:44.068Z,3.63
2022-10-31T11:47:48.834Z,4.40
2022-10-31T11:48:53.266Z,3.77
2022-10-31T11:49:57.859Z,3.30
2022-10-31T11:51:08.048Z,4.63
2022-10-31T11:52:22.088Z,4.37
2022-10-31T11:53:27.747Z,3.60
2022-10-31T11:54:32.627Z,4.13
2022-10-31T11:55:36.567Z,3.23
2022-10-31T11:56:48.074Z,3.37
2022-10-31T11:57:52.314Z,2.60
2022-10-31T11:58:57.838Z,4.10
2022-10-31T12:00:02.223Z,4.23
2022-10-31T12:01:06.223Z,4.07
2022-10-31T12:02:27.191Z,3.93
2022-10-31T12:03:36.172Z,3.70
2022-10-31T12:04:42.368Z,5.80
2022-10-31T12:05:46.464Z,4.83
2022-10-31T12:06:58.119Z,3.57
2022-10-31T12:08:04.450Z,4.40
2022-10-31T12:09:13.815Z,4.70
2022-10-31T12:10:17.998Z,3.97
2022-10-31T12:11:29.075Z,3.20
2022-10-31T12:12:58.449Z,4.63
2022-10-31T12:14:06.556Z,3.20
2022-10-31T12:15:19.534Z,4.30
2022-10-31T12:16:29.838Z,3.47
2022-10-31T12:17:44.171Z,2.97
2022-10-31T12:18:58.135Z,4.60
2022-10-31T12:20:29.011Z,3.43
2022-10-31T12:21:47.214Z,2.70
2022-10-31T12:23:01.567Z,3.13
2022-10-31T12:24:10.980Z,3.17
2022-10-31T12:25:22.727Z,3.57
2022-10-31T12:26:28.545Z,4.37
2022-10-31T12:27:37.151Z,3.93
2022-10-31T12:28:55.151Z,2.67
2022-10-31T12:30:05.206Z,4.90
2022-10-31T12:31:13.654Z,4.13
2022-10-31T12:32:23.163Z,4.03
2022-10-31T12:33:32.480Z,4.20
2022-10-31T12:35:00.068Z,5.33
2022-10-31T12:36:18.076Z,2.67
2022-10-31T12:37:27.970Z,3.90
2022-10-31T12:38:35.666Z,4.03
2022-10-31T12:39:49.181Z,2.77
2022-10-31T12:41:01.827Z,3.33
2022-10-31T12:42:07.797Z,3.23
2022-10-31T12:43:18.315Z,2.73
2022-10-31T12:44:33.521Z,2.00
2022-10-31T12:45:54.107Z,3.17
2022-10-31T12:47:06.249Z,3.00
2022-10-31T12:48:28.306Z,2.87
2022-10-31T12:49:45.200Z,3.27
2022-10-31T12:51:04.114Z,4.43
2022-10-31T12:52:15.057Z,3.43
2022-10-31T12:53:23.439Z,3.90
2022-10-31T12:54:37.079Z,4.73
2022-10-31T12:55:45.824Z,3.87
2022-10-31T12:57:00.508Z,3.63
2022-10-31T12:58:05.034Z,2.57
2022-10-31T12:59:13.813Z,4.90
2022-10-31T13:00:17.397Z,3.03
2022-10-31T13:01:23.801Z,3.37
2022-10-31T13:02:37.077Z,3.63
2022-10-31T13:03:46.403Z,2.87
2022-10-31T13:04:53.715Z,2.23
2022-10-31T13:05:58.607Z,4.13
2022-10-31T13:07:11.065Z,4.70
2022-10-31T13:08:15.654Z,3.13
2022-10-31T13:09:21.376Z,1.60
2022-10-31T13:10:27.348Z,3.73
2022-10-31T13:11:32.880Z,4.67
2022-10-31T13:12:43.127Z,5.00
2022-10-31T13:13:47.698Z,3.20
2022-10-31T13:14:54.309Z,4.10
2022-10-31T13:15:58.789Z,4.17
2022-10-31T13:17:02.465Z,4.43
2022-10-31T13:18:14.119Z,4.30
2022-10-31T13:19:20.213Z,4.53
2022-10-31T13:20:45.116Z,3.67
2022-10-31T13:21:55.064Z,4.47
2022-10-31T13:23:01.238Z,6.30
2022-10-31T13:24:14.105Z,6.10
2022-10-31T13:25:17.878Z,3.43
2022-10-31T13:26:36.027Z,4.43
2022-10-31T13:27:44.107Z,5.40
2022-10-31T13:28:56.103Z,5.73
2022-10-31T13:30:04.288Z,4.50
2022-10-31T13:31:06.775Z,3.63
2022-10-31T13:32:10.578Z,2.67
2022-10-31T13:33:14.819Z,3.57
2022-10-31T13:34:29.109Z,3.10
2022-10-31T13:35:36.547Z,2.77
2022-10-31T13:36:40.326Z,4.47
2022-10-31T13:37:44.866Z,4.03
2022-10-31T13:38:50.883Z,3.27
2022-10-31T13:40:09.236Z,3.07
2022-10-31T13:41:16.896Z,3.00
2022-10-31T13:42:23.035Z,3.20
2022-10-31T13:43:31.875Z,3.13
2022-10-31T13:44:38.794Z,2.20
2022-10-31T13:45:58.098Z,2.37
2022-10-31T13:47:01.685Z,3.65
2022-10-31T13:48:21.728Z,3.37
2022-10-31T13:49:39.086Z,1.95
2022-10-31T13:50:51.115Z,3.20
2022-10-31T13:51:54.266Z,2.78
2022-10-31T13:53:16.218Z,2.90
2022-10-31T13:54:22.836Z,4.18
2022-10-31T13:55:47.120Z,2.13
2022-10-31T13:56:52.156Z,2.70
2022-10-31T13:57:54.742Z,3.80
2022-10-31T13:59:02.970Z,3.13
2022-10-31T14:00:08.937Z,2.83
2022-10-31T14:01:24.288Z,2.97
2022-10-31T14:02:29.815Z,2.70
2022-10-31T14:03:58.385Z,3.43
2022-10-31T14:04:59.535Z,2.17
2022-10-31T14:06:03.616Z,2.57
2022-10-31T14:07:15.115Z,3.10
2022-10-31T14:08:20.850Z,3.30
2022-10-31T14:09:34.098Z,2.43
2022-10-31T14:10:38.998Z,3.17
2022-10-31T14:11:41.574Z,2.97
2022-10-31T14:12:52.103Z,4.13
2022-10-31T14:13:54.994Z,3.13
2022-10-31T14:15:02.306Z,3.57
2022-10-31T14:16:05.929Z,1.53
2022-10-31T14:17:24.106Z,3.83
2022-10-31T14:18:31.734Z,2.83
2022-10-31T14:19:34.247Z,3.47
2022-10-31T14:20:44.814Z,3.80
2022-10-31T14:21:49.362Z,3.57
2022-10-31T14:24:03.485Z,3.47
2022-10-31T14:25:21.773Z,5.03
2022-10-31T14:26:44.115Z,5.67
2022-10-31T14:27:48.905Z,2.47
2022-10-31T14:28:52.095Z,2.58
2022-10-31T14:29:55.561Z,2.77
2022-10-31T14:31:06.107Z,3.90
2022-10-31T14:32:20.131Z,3.47
2022-10-31T14:33:23.955Z,3.55
2022-10-31T14:34:29.585Z,3.00
2022-10-31T14:35:46.106Z,3.40
2022-10-31T14:36:54.954Z,2.33
2022-10-31T14:38:16.848Z,4.07
2022-10-31T14:39:31.106Z,1.63
2022-10-31T14:40:38.602Z,2.80
2022-10-31T14:41:50.224Z,2.37
2022-10-31T14:43:02.797Z,3.83
2022-10-31T14:44:31.086Z,3.93
2022-10-31T14:45:38.710Z,3.43
2022-10-31T14:46:53.140Z,3.10
2022-10-31T14:48:06.964Z,3.13
2022-10-31T14:49:29.526Z,4.47
2022-10-31T14:50:40.602Z,2.07
2022-10-31T14:51:52.137Z,3.40
2022-10-31T14:53:05.106Z,2.20
2022-10-31T14:54:34.117Z,2.97
2022-10-31T14:55:46.501Z,3.20
2022-10-31T14:56:51.006Z,4.07
2022-10-31T14:58:03.115Z,1.97
2022-10-31T14:59:10.105Z,2.77
2022-10-31T15:00:25.610Z,2.00
2022-10-31T15:01:30.438Z,3.13
2022-10-31T15:02:44.147Z,2.77
2022-10-31T15:04:10.510Z,2.37
2022-10-31T15:05:20.168Z,2.23
2022-10-31T15:06:24.814Z,2.03
2022-10-31T15:07:28.315Z,4.17